Time;durP1;ratioP1;P1;durP2;ratioP2;P2;SDS_P1;SDS_P2;PMS_P1;PMS_P2;Temp;Humidity;BMP_temperature;BMP_pressure;BME280_temperature;BME280_humidity;BME280_pressure;Samples;Min_cycle;Max_cycle;Signal;HPM_P1;HPM_P2
2022/05/22 00:00:22;;;;;;;0.50;0.30;;;;;;;;;;2105399;28;20044;-48
2022/05/22 00:01:23;;;;;;;1.02;0.40;;;;;;;;;;2105251;28;20359;-47
2022/05/22 00:02:25;;;;;;;0.52;0.45;;;;;;;;;;2105298;28;20098;-47
2022/05/22 00:03:26;;;;;;;0.55;0.40;;;;;;;;;;2105320;28;20055;-46
2022/05/22 00:04:27;;;;;;;1.33;0.50;;;;;;;;;;2105921;28;20051;-47
2022/05/22 00:05:28;;;;;;;5.68;0.60;;;;;;;;;;2106716;28;20055;-48
2022/05/22 00:06:29;;;;;;;2.00;0.40;;;;;;;;;;2106651;28;20079;-47
2022/05/22 00:07:30;;;;;;;3.28;0.63;;;;;;;;;;2106778;28;20058;-49
2022/05/22 00:08:31;;;;;;;1.03;0.50;;;;;;;;;;2106561;28;20055;-47
2022/05/22 00:09:33;;;;;;;0.68;0.50;;;;;;;;;;2106735;28;20138;-47
2022/05/22 00:10:34;;;;;;;0.60;0.47;;;;;;;;;;2106636;28;20132;-47
2022/05/22 00:11:35;;;;;;;1.23;0.47;;;;;;;;;;2106728;28;20181;-47
2022/05/22 00:12:37;;;;;;;5.20;0.60;;;;;;;;;;2106734;28;20079;-47
2022/05/22 00:13:38;;;;;;;2.63;0.50;;;;;;;;;;2106498;28;20420;-47
2022/05/22 00:14:39;;;;;;;1.65;0.30;;;;;;;;;;2106568;28;20439;-47
2022/05/22 00:16:36;;;;;;;0.45;0.35;;;;;;;;;;2106601;28;20041;-47
2022/05/22 00:17:02;;;;;;;1.27;0.50;;;;;;;;;;2106568;28;20448;-47
2022/05/22 00:18:04;;;;;;;0.50;0.35;;;;;;;;;;2106509;28;20727;-47
2022/05/22 00:19:05;;;;;;;0.73;0.47;;;;;;;;;;2100402;28;20370;-47
2022/05/22 00:20:07;;;;;;;0.55;0.32;;;;;;;;;;2098082;28;20119;-47
2022/05/22 00:21:08;;;;;;;0.70;0.40;;;;;;;;;;2098169;28;20508;-48
2022/05/22 00:22:09;;;;;;;0.60;0.40;;;;;;;;;;2098179;28;20053;-47
2022/05/22 00:23:10;;;;;;;0.57;0.52;;;;;;;;;;2098262;28;20124;-47
2022/05/22 00:24:12;;;;;;;0.33;0.30;;;;;;;;;;2097942;28;20041;-47
2022/05/22 00:25:13;;;;;;;0.40;0.38;;;;;;;;;;2098256;28;20071;-46
2022/05/22 00:26:14;;;;;;;0.93;0.47;;;;;;;;;;2098306;28;20126;-48
2022/05/22 00:27:16;;;;;;;0.57;0.40;;;;;;;;;;2098343;28;20072;-47
2022/05/22 00:28:17;;;;;;;0.80;0.50;;;;;;;;;;2098165;28;20596;-46
2022/05/22 00:29:19;;;;;;;1.93;0.40;;;;;;;;;;2098285;28;20047;-47
2022/05/22 00:30:20;;;;;;;0.75;0.52;;;;;;;;;;2098131;28;20379;-47
2022/05/22 00:31:21;;;;;;;1.23;0.50;;;;;;;;;;2098079;28;20127;-47
2022/05/22 00:32:22;;;;;;;1.30;0.50;;;;;;;;;;2098190;28;20079;-48
2022/05/22 00:33:23;;;;;;;0.60;0.40;;;;;;;;;;2098086;28;20292;-47
2022/05/22 00:34:24;;;;;;;0.63;0.40;;;;;;;;;;2098139;28;20060;-47
2022/05/22 00:35:25;;;;;;;1.52;0.50;;;;;;;;;;2098106;28;20048;-49
2022/05/22 00:36:27;;;;;;;2.63;0.47;;;;;;;;;;2098246;28;20048;-47
2022/05/22 00:37:28;;;;;;;1.70;0.47;;;;;;;;;;2098058;28;20049;-48
2022/05/22 00:38:29;;;;;;;2.25;0.50;;;;;;;;;;2097949;28;20401;-47
2022/05/22 00:39:30;;;;;;;2.30;0.40;;;;;;;;;;2098095;28;20048;-47
2022/05/22 00:40:31;;;;;;;5.38;0.80;;;;;;;;;;2098018;28;20182;-47
2022/05/22 00:41:34;;;;;;;1.37;0.70;;;;;;;;;;2098333;28;20123;-46
2022/05/22 00:42:36;;;;;;;1.05;0.47;;;;;;;;;;2098234;28;20281;-49
2022/05/22 00:43:38;;;;;;;0.77;0.45;;;;;;;;;;2097986;28;20413;-46
2022/05/22 00:44:39;;;;;;;1.80;0.50;;;;;;;;;;2097951;28;20088;-48
2022/05/22 00:45:40;;;;;;;2.33;0.45;;;;;;;;;;2103649;28;20527;-47
2022/05/22 00:46:41;;;;;;;1.70;0.40;;;;;;;;;;2106533;28;20048;-47
2022/05/22 00:47:42;;;;;;;2.88;0.47;;;;;;;;;;2106465;28;20437;-47
2022/05/22 00:48:44;;;;;;;0.95;0.52;;;;;;;;;;2106431;28;20044;-48
2022/05/22 00:49:46;;;;;;;1.15;0.40;;;;;;;;;;2106471;28;20151;-47
2022/05/22 00:50:47;;;;;;;1.45;0.50;;;;;;;;;;2106423;28;20533;-47
2022/05/22 00:51:51;;;;;;;2.20;0.60;;;;;;;;;;2106434;28;20040;-47
2022/05/22 00:52:55;;;;;;;1.58;0.30;;;;;;;;;;2106490;28;20131;-48
2022/05/22 00:53:59;;;;;;;0.80;0.50;;;;;;;;;;2106209;28;20529;-47
2022/05/22 00:55:02;;;;;;;1.67;0.60;;;;;;;;;;2106323;28;20517;-47
2022/05/22 00:56:04;;;;;;;1.02;0.55;;;;;;;;;;2106274;28;20127;-47
2022/05/22 00:57:09;;;;;;;2.08;0.70;;;;;;;;;;2106270;28;20130;-47
2022/05/22 00:58:13;;;;;;;1.88;0.73;;;;;;;;;;2106463;28;20170;-47
2022/05/22 00:59:16;;;;;;;1.65;0.55;;;;;;;;;;2106264;28;20091;-47
2022/05/22 01:00:19;;;;;;;1.38;0.70;;;;;;;;;;2106299;28;20127;-46
2022/05/22 01:01:20;;;;;;;3.25;0.70;;;;;;;;;;2106588;28;20123;-46
2022/05/22 01:02:21;;;;;;;0.95;0.55;;;;;;;;;;2106285;28;20048;-47
2022/05/22 01:03:27;;;;;;;0.85;0.60;;;;;;;;;;2106353;28;20054;-48
2022/05/22 01:04:30;;;;;;;2.50;0.50;;;;;;;;;;2106272;28;20131;-48
2022/05/22 01:05:31;;;;;;;1.27;0.50;;;;;;;;;;2106226;28;20050;-47
2022/05/22 01:06:32;;;;;;;3.20;0.70;;;;;;;;;;2106356;28;20076;-47
2022/05/22 01:07:34;;;;;;;0.82;0.60;;;;;;;;;;2106296;28;20461;-46
2022/05/22 01:08:37;;;;;;;0.82;0.57;;;;;;;;;;2106298;28;20059;-47
2022/05/22 01:09:38;;;;;;;0.98;0.55;;;;;;;;;;2106219;28;20101;-47
2022/05/22 01:10:41;;;;;;;0.85;0.60;;;;;;;;;;2106274;28;20459;-49
2022/05/22 01:11:43;;;;;;;0.68;0.50;;;;;;;;;;2106205;28;20166;-46
2022/05/22 01:12:45;;;;;;;2.45;0.50;;;;;;;;;;2106276;28;20446;-48
2022/05/22 01:13:48;;;;;;;1.80;0.63;;;;;;;;;;2106380;28;20135;-47
2022/05/22 01:14:50;;;;;;;1.23;0.60;;;;;;;;;;2106280;28;20047;-49
2022/05/22 01:15:51;;;;;;;;;;;;;;;;;;2106417;28;20596;-47
2022/05/22 01:16:52;;;;;;;1.20;0.50;;;;;;;;;;2106214;28;19963;-47
2022/05/22 01:17:53;;;;;;;1.17;1.00;;;;;;;;;;2106261;28;20078;-46
2022/05/22 01:18:56;;;;;;;1.73;0.53;;;;;;;;;;2105961;28;20044;-48
2022/05/22 01:19:58;;;;;;;0.90;0.65;;;;;;;;;;2106203;28;20127;-49
2022/05/22 01:21:00;;;;;;;1.63;0.55;;;;;;;;;;2106054;28;20048;-47
2022/05/22 01:22:02;;;;;;;3.08;0.73;;;;;;;;;;2106202;28;20126;-47
2022/05/22 01:23:04;;;;;;;2.65;0.70;;;;;;;;;;2106126;28;20123;-48
2022/05/22 01:24:05;;;;;;;0.98;0.50;;;;;;;;;;2106070;28;20473;-47
2022/05/22 01:25:07;;;;;;;0.90;0.57;;;;;;;;;;2106122;28;20047;-46
2022/05/22 01:26:08;;;;;;;0.70;0.50;;;;;;;;;;2106085;28;20495;-47
2022/05/22 01:27:11;;;;;;;2.45;0.60;;;;;;;;;;2106143;28;20123;-47
2022/05/22 01:28:14;;;;;;;1.95;0.73;;;;;;;;;;2106138;28;20540;-47
2022/05/22 01:29:14;;;;;;;0.73;0.63;;;;;;;;;;2105993;28;20402;-49
2022/05/22 01:30:17;;;;;;;4.83;0.60;;;;;;;;;;2106202;28;20085;-47
2022/05/22 01:31:18;;;;;;;0.90;0.70;;;;;;;;;;2106131;28;20044;-47
2022/05/22 01:32:20;;;;;;;1.95;0.57;;;;;;;;;;2106060;28;20044;-47
2022/05/22 01:33:23;;;;;;;2.22;0.73;;;;;;;;;;2106247;28;20138;-47
2022/05/22 01:34:24;;;;;;;;;;;;;;;;;;2106437;28;20416;-59
2022/05/22 01:35:26;;;;;;;2.15;1.02;;;;;;;;;;2106187;28;19927;-59
2022/05/22 01:36:27;;;;;;;5.30;0.77;;;;;;;;;;2105999;28;20127;-59
2022/05/22 01:37:29;;;;;;;1.60;0.70;;;;;;;;;;2106021;28;20560;-59
2022/05/22 01:38:30;;;;;;;1.08;0.60;;;;;;;;;;2105969;28;20086;-59
2022/05/22 01:39:31;;;;;;;2.15;0.68;;;;;;;;;;2106081;28;20050;-59
2022/05/22 01:40:34;;;;;;;1.10;0.60;;;;;;;;;;2106045;28;20382;-59
2022/05/22 01:41:35;;;;;;;0.90;0.77;;;;;;;;;;2105802;28;20135;-59
2022/05/22 01:42:37;;;;;;;1.40;0.70;;;;;;;;;;2106123;28;20206;-59
2022/05/22 01:43:38;;;;;;;3.47;0.80;;;;;;;;;;2105939;28;20542;-59
2022/05/22 01:44:39;;;;;;;1.30;0.77;;;;;;;;;;2106118;28;20105;-59
2022/05/22 01:45:41;;;;;;;1.58;0.70;;;;;;;;;;2106022;28;20048;-59
2022/05/22 01:46:42;;;;;;;3.63;0.80;;;;;;;;;;2106110;28;20446;-59
2022/05/22 01:47:43;;;;;;;3.67;0.80;;;;;;;;;;2106019;28;20143;-59
2022/05/22 01:48:44;;;;;;;0.82;0.70;;;;;;;;;;2106137;28;20075;-59
2022/05/22 01:49:45;;;;;;;1.48;0.77;;;;;;;;;;2105976;28;20153;-60
2022/05/22 01:50:47;;;;;;;0.43;0.43;;;;;;;;;;2105955;28;20161;-59
2022/05/22 01:51:47;;;;;;;1.02;0.70;;;;;;;;;;2106015;28;20139;-59
2022/05/22 01:52:49;;;;;;;0.97;0.53;;;;;;;;;;2106043;28;20493;-59
2022/05/22 01:53:50;;;;;;;;;;;;;;;;;;2106340;28;20044;-59
2022/05/22 01:54:51;;;;;;;1.40;0.70;;;;;;;;;;2105957;28;20368;-59
2022/05/22 01:55:53;;;;;;;1.20;0.60;;;;;;;;;;2105911;28;20054;-59
2022/05/22 01:56:54;;;;;;;2.40;0.88;;;;;;;;;;2105829;28;20058;-59
2022/05/22 01:57:55;;;;;;;1.67;0.70;;;;;;;;;;2105922;28;20044;-59
2022/05/22 01:58:56;;;;;;;2.17;0.60;;;;;;;;;;2105772;28;20048;-59
2022/05/22 01:59:57;;;;;;;2.25;0.60;;;;;;;;;;2105923;28;20055;-59
2022/05/22 02:00:58;;;;;;;1.83;0.77;;;;;;;;;;2105853;28;20525;-59
2022/05/22 02:01:59;;;;;;;0.73;0.60;;;;;;;;;;2106034;28;20127;-59
2022/05/22 02:03:01;;;;;;;2.45;0.70;;;;;;;;;;2105928;28;20139;-59
2022/05/22 02:04:02;;;;;;;2.08;1.05;;;;;;;;;;2105948;28;20044;-60
2022/05/22 02:05:03;;;;;;;1.15;0.70;;;;;;;;;;2105903;28;20043;-59
2022/05/22 02:06:04;;;;;;;0.90;0.63;;;;;;;;;;2106020;28;20044;-59
2022/05/22 02:08:26;;;;;;;2.00;0.80;;;;;;;;;;2105941;28;20132;-59
2022/05/22 02:09:27;;;;;;;1.08;0.65;;;;;;;;;;2105693;28;20132;-59
2022/05/22 02:10:30;;;;;;;0.80;0.60;;;;;;;;;;2105843;28;20127;-59
2022/05/22 02:11:32;;;;;;;0.80;0.57;;;;;;;;;;2105891;28;20308;-59
2022/05/22 02:12:32;;;;;;;0.82;0.50;;;;;;;;;;2105870;28;20040;-59
2022/05/22 02:13:35;;;;;;;2.53;0.80;;;;;;;;;;2105923;28;20504;-59
2022/05/22 02:14:36;;;;;;;2.33;0.80;;;;;;;;;;2105812;28;20473;-59
2022/05/22 02:15:37;;;;;;;2.20;0.90;;;;;;;;;;2105937;28;20120;-59
2022/05/22 02:16:38;;;;;;;2.25;0.88;;;;;;;;;;2105938;28;20144;-48
2022/05/22 02:17:39;;;;;;;1.30;0.77;;;;;;;;;;2105817;28;20059;-49
2022/05/22 02:18:41;;;;;;;0.87;0.60;;;;;;;;;;2102950;28;20078;-47
2022/05/22 02:19:42;;;;;;;1.15;0.60;;;;;;;;;;2097471;28;20282;-48
2022/05/22 02:20:43;;;;;;;1.33;0.60;;;;;;;;;;2097445;28;20067;-47
2022/05/22 02:21:45;;;;;;;3.00;0.93;;;;;;;;;;2097659;28;20064;-59
2022/05/22 02:22:47;;;;;;;0.95;0.60;;;;;;;;;;2097412;28;20560;-59
2022/05/22 02:23:49;;;;;;;2.03;0.80;;;;;;;;;;2097248;28;20489;-59
2022/05/22 02:24:50;;;;;;;2.75;0.85;;;;;;;;;;2097530;28;20131;-59
2022/05/22 02:25:54;;;;;;;1.50;0.75;;;;;;;;;;2097324;28;20131;-59
2022/05/22 02:26:55;;;;;;;0.95;0.77;;;;;;;;;;2096733;28;20082;-59
2022/05/22 02:27:56;;;;;;;1.15;0.70;;;;;;;;;;2097525;28;20044;-46
2022/05/22 02:28:58;;;;;;;1.45;0.77;;;;;;;;;;2097627;28;20129;-47
2022/05/22 02:29:59;;;;;;;2.28;0.65;;;;;;;;;;2097392;28;20226;-47
2022/05/22 02:31:01;;;;;;;1.30;0.70;;;;;;;;;;2097489;28;20480;-47
2022/05/22 02:32:02;;;;;;;1.60;0.90;;;;;;;;;;2097428;28;20296;-48
2022/05/22 02:33:04;;;;;;;2.20;1.02;;;;;;;;;;2097274;28;20047;-47
2022/05/22 02:34:05;;;;;;;2.80;0.70;;;;;;;;;;2097545;28;20049;-47
2022/05/22 02:35:07;;;;;;;1.60;0.90;;;;;;;;;;2097296;28;20124;-47
2022/05/22 02:36:10;;;;;;;;;;;;;;;;;;2097822;28;20140;-47
2022/05/22 02:37:11;;;;;;;;;;;;;;;;;;2097744;28;20437;-47
2022/05/22 02:38:12;;;;;;;1.73;0.80;;;;;;;;;;2103298;28;19920;-47
2022/05/22 02:39:14;;;;;;;1.13;0.73;;;;;;;;;;2105550;28;20046;-49
2022/05/22 02:40:17;;;;;;;2.00;1.10;;;;;;;;;;2105842;28;20430;-47
2022/05/22 02:41:20;;;;;;;2.22;0.90;;;;;;;;;;2105665;28;20040;-46
2022/05/22 02:42:21;;;;;;;3.97;1.13;;;;;;;;;;2105674;28;20408;-47
2022/05/22 02:43:22;;;;;;;2.17;1.20;;;;;;;;;;2105703;28;20130;-48
2022/05/22 02:44:23;;;;;;;2.60;1.02;;;;;;;;;;2105509;28;20095;-47
2022/05/22 02:45:25;;;;;;;2.00;0.83;;;;;;;;;;2105641;28;20048;-47
2022/05/22 02:46:26;;;;;;;2.40;1.00;;;;;;;;;;2105576;28;20052;-47
2022/05/22 02:47:27;;;;;;;2.13;1.00;;;;;;;;;;2105749;28;20527;-47
2022/05/22 02:48:29;;;;;;;1.40;0.70;;;;;;;;;;2105570;28;20126;-46
2022/05/22 02:49:31;;;;;;;2.13;1.40;;;;;;;;;;2105730;28;20040;-46
2022/05/22 02:50:32;;;;;;;1.70;1.08;;;;;;;;;;2105667;28;20044;-47
2022/05/22 02:51:34;;;;;;;1.63;0.80;;;;;;;;;;2105772;28;20048;-48
2022/05/22 02:52:35;;;;;;;2.17;0.70;;;;;;;;;;2105709;28;20127;-47
2022/05/22 02:53:36;;;;;;;1.40;0.80;;;;;;;;;;2105525;28;20169;-48
2022/05/22 02:54:37;;;;;;;1.10;0.60;;;;;;;;;;2105519;28;20400;-48
2022/05/22 02:55:41;;;;;;;2.45;1.02;;;;;;;;;;2105719;28;20044;-49
2022/05/22 02:56:42;;;;;;;2.47;1.02;;;;;;;;;;2105574;28;20493;-47
2022/05/22 02:57:43;;;;;;;2.03;1.20;;;;;;;;;;2105730;28;20044;-47
2022/05/22 02:58:45;;;;;;;3.70;1.02;;;;;;;;;;2105533;28;20052;-47
2022/05/22 02:59:46;;;;;;;1.63;0.80;;;;;;;;;;2105508;28;20512;-47
2022/05/22 03:00:47;;;;;;;3.33;1.17;;;;;;;;;;2105732;28;20044;-59
2022/05/22 03:01:48;;;;;;;2.08;0.90;;;;;;;;;;2105639;28;20134;-59
2022/05/22 03:02:49;;;;;;;1.27;0.87;;;;;;;;;;2105519;28;20488;-59
2022/05/22 03:03:50;;;;;;;2.05;0.80;;;;;;;;;;2105444;28;20481;-59
2022/05/22 03:04:52;;;;;;;2.08;0.80;;;;;;;;;;2105715;28;20044;-59
2022/05/22 03:07:13;;;;;;;1.52;0.82;;;;;;;;;;2105641;28;20481;-59
2022/05/22 03:08:14;;;;;;;;;;;;;;;;;;2106105;28;20135;-59
2022/05/22 03:09:16;;;;;;;1.52;0.93;;;;;;;;;;2105672;28;20022;-59
2022/05/22 03:10:17;;;;;;;;;;;;;;;;;;2105947;28;20556;-59
2022/05/22 03:11:19;;;;;;;1.58;1.10;;;;;;;;;;2105436;28;19920;-59
2022/05/22 03:12:23;;;;;;;2.90;1.08;;;;;;;;;;2105311;28;20401;-59
2022/05/22 03:13:24;;;;;;;2.00;0.70;;;;;;;;;;2105478;28;20478;-59
2022/05/22 03:14:25;;;;;;;3.78;1.20;;;;;;;;;;2105423;28;20149;-59
2022/05/22 03:15:26;;;;;;;2.87;1.20;;;;;;;;;;2105429;28;20568;-59
2022/05/22 03:16:27;;;;;;;2.97;1.10;;;;;;;;;;2105650;28;20123;-59
2022/05/22 03:17:28;;;;;;;1.20;0.80;;;;;;;;;;2105421;28;20169;-59
2022/05/22 03:18:29;;;;;;;3.22;0.98;;;;;;;;;;2104151;28;20378;-59
2022/05/22 03:19:31;;;;;;;1.30;0.82;;;;;;;;;;2097166;28;20568;-59
2022/05/22 03:20:33;;;;;;;1.50;1.08;;;;;;;;;;2097162;28;20182;-59
2022/05/22 03:21:34;;;;;;;1.33;0.90;;;;;;;;;;2097266;28;20079;-59
2022/05/22 03:22:35;;;;;;;1.40;0.90;;;;;;;;;;2097280;28;20125;-59
2022/05/22 03:23:37;;;;;;;1.53;1.17;;;;;;;;;;2097174;28;20135;-59
2022/05/22 03:24:37;;;;;;;;;;;;;;;;;;2097564;28;20044;-59
2022/05/22 03:25:39;;;;;;;2.17;1.10;;;;;;;;;;2097191;28;19986;-59
2022/05/22 03:26:40;;;;;;;2.33;1.00;;;;;;;;;;2097111;28;20163;-59
2022/05/22 03:27:42;;;;;;;1.52;1.02;;;;;;;;;;2097281;28;20072;-59
2022/05/22 03:28:43;;;;;;;1.38;1.10;;;;;;;;;;2096986;28;20131;-59
2022/05/22 03:29:45;;;;;;;1.90;1.20;;;;;;;;;;2097278;28;20079;-59
2022/05/22 03:30:45;;;;;;;1.33;1.05;;;;;;;;;;2097086;28;20125;-59
2022/05/22 03:31:47;;;;;;;2.55;1.10;;;;;;;;;;2097363;28;20045;-59
2022/05/22 03:32:48;;;;;;;1.52;1.00;;;;;;;;;;2097081;28;20127;-59
2022/05/22 03:33:49;;;;;;;2.33;1.13;;;;;;;;;;2097345;28;20045;-59
2022/05/22 03:34:50;;;;;;;2.00;1.25;;;;;;;;;;2105525;28;20382;-59
2022/05/22 03:35:51;;;;;;;2.27;1.37;;;;;;;;;;2105411;28;20074;-59
2022/05/22 03:36:52;;;;;;;3.25;1.35;;;;;;;;;;2105731;28;20126;-46
2022/05/22 03:37:53;;;;;;;2.05;1.27;;;;;;;;;;2105372;28;20481;-47
2022/05/22 03:38:54;;;;;;;1.50;1.05;;;;;;;;;;2106627;28;20050;-47
2022/05/22 03:39:55;;;;;;;3.35;1.30;;;;;;;;;;2106771;28;20750;-46
2022/05/22 03:40:57;;;;;;;2.05;1.05;;;;;;;;;;2107180;28;20079;-47
2022/05/22 03:41:58;;;;;;;2.15;1.30;;;;;;;;;;2106842;28;20059;-48
2022/05/22 03:43:00;;;;;;;2.40;1.50;;;;;;;;;;2106858;28;20071;-47
2022/05/22 03:44:01;;;;;;;1.52;1.00;;;;;;;;;;2106776;28;20076;-47
2022/05/22 03:45:03;;;;;;;2.72;1.20;;;;;;;;;;2106709;28;20051;-47
2022/05/22 03:46:03;;;;;;;3.40;1.70;;;;;;;;;;2106970;28;20063;-48
2022/05/22 03:47:05;;;;;;;4.70;1.43;;;;;;;;;;2106818;28;20051;-48
2022/05/22 03:48:06;;;;;;;3.90;1.38;;;;;;;;;;2106825;28;20416;-48
2022/05/22 03:49:07;;;;;;;2.17;1.30;;;;;;;;;;2106786;28;20177;-48
2022/05/22 03:50:11;;;;;;;2.95;1.20;;;;;;;;;;2107093;28;20048;-60
2022/05/22 03:51:11;;;;;;;2.83;1.20;;;;;;;;;;2106368;28;20133;-59
2022/05/22 03:52:13;;;;;;;2.13;1.53;;;;;;;;;;2106526;28;20469;-60
2022/05/22 03:53:14;;;;;;;1.77;1.30;;;;;;;;;;2105938;28;20217;-60
2022/05/22 03:54:15;;;;;;;1.40;1.10;;;;;;;;;;2106349;28;20071;-59
2022/05/22 03:55:16;;;;;;;3.65;1.45;;;;;;;;;;2106485;28;20365;-59
2022/05/22 03:56:18;;;;;;;4.05;1.40;;;;;;;;;;2106698;28;20044;-59
2022/05/22 03:57:20;;;;;;;2.30;1.40;;;;;;;;;;2106639;28;20056;-59
2022/05/22 03:58:21;;;;;;;2.45;1.42;;;;;;;;;;2106669;28;20127;-60
2022/05/22 03:59:22;;;;;;;1.60;1.20;;;;;;;;;;2106654;28;20136;-59
2022/05/22 04:00:24;;;;;;;2.17;1.25;;;;;;;;;;2106642;28;20131;-59
2022/05/22 04:01:25;;;;;;;3.25;1.55;;;;;;;;;;2106791;28;20080;-59
2022/05/22 04:02:26;;;;;;;2.70;1.52;;;;;;;;;;2106833;28;20523;-46
2022/05/22 04:03:27;;;;;;;2.13;1.25;;;;;;;;;;2106799;28;20413;-46
2022/05/22 04:04:29;;;;;;;2.85;1.40;;;;;;;;;;2106593;28;20126;-47
2022/05/22 04:05:30;;;;;;;2.53;1.27;;;;;;;;;;2106721;28;20075;-49
2022/05/22 04:06:31;;;;;;;2.63;1.40;;;;;;;;;;2106745;28;20090;-49
2022/05/22 04:07:35;;;;;;;1.98;1.33;;;;;;;;;;2106603;28;20481;-48
2022/05/22 04:08:37;;;;;;;2.40;1.27;;;;;;;;;;2106690;28;20079;-47
2022/05/22 04:09:38;;;;;;;2.30;1.42;;;;;;;;;;2106550;28;20592;-48
2022/05/22 04:10:39;;;;;;;2.63;1.47;;;;;;;;;;2106795;28;20059;-47
2022/05/22 04:11:41;;;;;;;1.75;1.40;;;;;;;;;;2106783;28;20132;-48
2022/05/22 04:12:43;;;;;;;3.97;1.48;;;;;;;;;;2106851;28;20130;-47
2022/05/22 04:13:44;;;;;;;2.33;1.30;;;;;;;;;;2106716;28;20052;-47
2022/05/22 04:14:45;;;;;;;1.40;1.08;;;;;;;;;;2106642;28;20048;-47
2022/05/22 04:15:46;;;;;;;3.08;1.50;;;;;;;;;;2106964;28;20087;-59
2022/05/22 04:16:48;;;;;;;4.00;1.80;;;;;;;;;;2106653;28;20131;-59
2022/05/22 04:17:49;;;;;;;2.65;1.65;;;;;;;;;;2106615;28;20437;-60
2022/05/22 04:18:50;;;;;;;3.10;1.50;;;;;;;;;;2102209;28;20606;-59
2022/05/22 04:19:51;;;;;;;4.00;1.35;;;;;;;;;;2098203;28;20489;-59
2022/05/22 04:20:52;;;;;;;1.77;1.13;;;;;;;;;;2098153;28;20051;-60
2022/05/22 04:21:53;;;;;;;1.52;1.00;;;;;;;;;;2098176;28;20485;-59
2022/05/22 04:25:41;;;;;;;1.73;1.10;;;;;;;;;;2095316;28;20435;-59
2022/05/22 04:26:42;;;;;;;1.33;1.00;;;;;;;;;;2098318;28;20109;-59
2022/05/22 04:27:45;;;;;;;5.47;1.38;;;;;;;;;;2098354;28;20044;-59
2022/05/22 04:28:46;;;;;;;;;;;;;;;;;;2098906;28;20105;-47
2022/05/22 04:29:47;;;;;;;2.25;1.27;;;;;;;;;;2098110;28;20423;-47
2022/05/22 04:30:48;;;;;;;2.65;1.40;;;;;;;;;;2104703;28;20408;-47
2022/05/22 04:31:49;;;;;;;2.20;1.00;;;;;;;;;;2106413;28;20520;-48
2022/05/22 04:32:51;;;;;;;1.45;1.10;;;;;;;;;;2106540;28;20044;-47
2022/05/22 04:33:52;;;;;;;1.80;1.20;;;;;;;;;;2106497;28;20052;-47
2022/05/22 04:34:53;;;;;;;1.30;1.20;;;;;;;;;;2106646;28;20112;-47
2022/05/22 04:35:54;;;;;;;1.10;0.90;;;;;;;;;;2106472;28;20485;-47
2022/05/22 04:36:56;;;;;;;3.10;1.27;;;;;;;;;;2106448;28;20479;-47
2022/05/22 04:37:59;;;;;;;1.73;1.05;;;;;;;;;;2106797;28;20052;-47
2022/05/22 04:39:01;;;;;;;2.47;1.13;;;;;;;;;;2106211;28;20131;-47
2022/05/22 04:40:02;;;;;;;2.95;1.10;;;;;;;;;;2106449;28;20570;-47
2022/05/22 04:41:03;;;;;;;1.77;1.20;;;;;;;;;;2106496;28;20067;-47
2022/05/22 04:42:05;;;;;;;2.45;1.20;;;;;;;;;;2106628;28;20050;-47
2022/05/22 04:43:06;;;;;;;1.15;1.00;;;;;;;;;;2106903;28;20112;-47
2022/05/22 04:44:07;;;;;;;2.88;0.90;;;;;;;;;;2106403;28;20101;-47
2022/05/22 04:45:10;;;;;;;2.33;1.10;;;;;;;;;;2106410;28;20513;-48
2022/05/22 04:46:10;;;;;;;1.55;1.10;;;;;;;;;;2106471;28;20079;-46
2022/05/22 04:47:12;;;;;;;1.73;0.93;;;;;;;;;;2106468;28;20068;-48
2022/05/22 04:48:13;;;;;;;1.20;0.88;;;;;;;;;;2106432;28;20119;-46
2022/05/22 04:49:14;;;;;;;5.60;1.53;;;;;;;;;;2106401;28;20374;-48
2022/05/22 04:50:16;;;;;;;3.90;1.17;;;;;;;;;;2106075;28;20048;-59
2022/05/22 04:51:17;;;;;;;2.17;1.30;;;;;;;;;;2106454;28;20048;-59
2022/05/22 04:52:18;;;;;;;3.90;1.02;;;;;;;;;;2106304;28;20119;-59
2022/05/22 04:53:20;;;;;;;4.60;1.25;;;;;;;;;;2106495;28;20457;-60
2022/05/22 04:54:21;;;;;;;1.98;1.00;;;;;;;;;;2106216;28;20127;-59
2022/05/22 04:55:23;;;;;;;1.20;0.97;;;;;;;;;;2106474;28;20077;-60
2022/05/22 04:56:24;;;;;;;1.63;1.25;;;;;;;;;;2106521;28;20135;-59
2022/05/22 04:57:25;;;;;;;1.52;0.90;;;;;;;;;;2106451;28;20496;-60
2022/05/22 04:58:26;;;;;;;1.58;0.98;;;;;;;;;;2106236;28;20135;-60
2022/05/22 04:59:28;;;;;;;1.67;1.02;;;;;;;;;;2106331;28;20100;-59
2022/05/22 05:00:29;;;;;;;2.33;1.10;;;;;;;;;;2106336;28;20131;-59
2022/05/22 05:01:30;;;;;;;1.10;0.87;;;;;;;;;;2106881;28;20497;-59
2022/05/22 05:02:31;;;;;;;1.98;1.40;;;;;;;;;;2106525;28;20077;-60
2022/05/22 05:03:32;;;;;;;2.25;1.35;;;;;;;;;;2106214;28;20079;-60
2022/05/22 05:04:33;;;;;;;1.95;1.20;;;;;;;;;;2106351;28;20052;-60
2022/05/22 05:05:35;;;;;;;1.15;0.98;;;;;;;;;;2106466;28;20087;-46
2022/05/22 05:06:36;;;;;;;1.88;0.90;;;;;;;;;;2106412;28;20131;-48
2022/05/22 05:07:37;;;;;;;1.50;1.23;;;;;;;;;;2106159;28;20062;-47
2022/05/22 05:08:39;;;;;;;2.65;1.17;;;;;;;;;;2106377;28;20043;-59
2022/05/22 05:09:40;;;;;;;1.90;1.10;;;;;;;;;;2106228;28;20618;-60
2022/05/22 05:10:43;;;;;;;2.60;1.10;;;;;;;;;;2106445;28;20051;-60
2022/05/22 05:11:44;;;;;;;1.65;1.10;;;;;;;;;;2106523;28;20075;-60
2022/05/22 05:12:45;;;;;;;2.53;1.03;;;;;;;;;;2106280;28;20097;-59
2022/05/22 05:13:47;;;;;;;1.25;0.98;;;;;;;;;;2106338;28;20130;-47
2022/05/22 05:14:48;;;;;;;1.90;0.93;;;;;;;;;;2106181;28;20125;-47
2022/05/22 05:15:56;;;;;;;5.45;1.27;;;;;;;;;;2106438;28;20058;-47
2022/05/22 05:16:59;;;;;;;2.25;1.10;;;;;;;;;;2106202;28;20044;-47
2022/05/22 05:18:00;;;;;;;2.25;1.00;;;;;;;;;;2106315;28;20127;-49
2022/05/22 05:19:02;;;;;;;1.13;0.82;;;;;;;;;;2100557;28;20471;-60
2022/05/22 05:20:03;;;;;;;0.93;0.80;;;;;;;;;;2097903;28;20044;-60
2022/05/22 05:21:05;;;;;;;2.42;1.00;;;;;;;;;;2097805;28;20124;-60
2022/05/22 05:22:06;;;;;;;1.60;0.90;;;;;;;;;;2097844;28;20072;-59
2022/05/22 05:23:07;;;;;;;1.65;1.10;;;;;;;;;;2097918;28;20052;-60
2022/05/22 05:24:08;;;;;;;2.35;0.90;;;;;;;;;;2097816;28;20123;-59
2022/05/22 05:25:10;;;;;;;1.40;0.87;;;;;;;;;;2098155;28;20426;-60
2022/05/22 05:26:11;;;;;;;;;;;;;;;;;;2098127;28;20047;-60
2022/05/22 05:27:12;;;;;;;2.80;0.98;;;;;;;;;;2105992;28;19920;-48
2022/05/22 05:28:34;;;;;;;1.67;0.90;;;;;;;;;;2106344;28;20044;-48
2022/05/22 05:29:35;;;;;;;1.20;0.70;;;;;;;;;;2106084;28;20131;-46
2022/05/22 05:30:37;;;;;;;1.17;0.80;;;;;;;;;;2106428;28;20143;-46
2022/05/22 05:31:37;;;;;;;1.48;0.90;;;;;;;;;;2106021;28;20093;-49
2022/05/22 05:32:42;;;;;;;1.20;0.80;;;;;;;;;;2106117;28;20059;-47
2022/05/22 05:33:43;;;;;;;1.25;1.00;;;;;;;;;;2105977;28;20052;-46
2022/05/22 05:34:44;;;;;;;1.52;0.80;;;;;;;;;;2106039;28;20455;-47
2022/05/22 05:35:45;;;;;;;2.30;1.10;;;;;;;;;;2106175;28;20048;-47
2022/05/22 05:36:46;;;;;;;2.45;1.00;;;;;;;;;;2106162;28;20358;-59
2022/05/22 05:37:48;;;;;;;1.90;1.00;;;;;;;;;;2106143;28;20048;-60
2022/05/22 05:38:49;;;;;;;1.20;0.80;;;;;;;;;;2106026;28;20123;-60
2022/05/22 05:39:59;;;;;;;2.22;0.90;;;;;;;;;;2106039;28;20051;-59
2022/05/22 05:41:00;;;;;;;1.15;0.60;;;;;;;;;;2105917;28;20498;-60
2022/05/22 05:42:01;;;;;;;1.23;0.88;;;;;;;;;;2105960;28;20051;-60
2022/05/22 05:43:02;;;;;;;0.90;0.73;;;;;;;;;;2106107;28;20429;-60
2022/05/22 05:44:05;;;;;;;1.10;0.80;;;;;;;;;;2105976;28;20076;-60
2022/05/22 05:45:08;;;;;;;2.05;1.05;;;;;;;;;;2105949;28;20122;-60
2022/05/22 05:46:10;;;;;;;1.48;1.20;;;;;;;;;;2105950;28;20111;-59
2022/05/22 05:47:16;;;;;;;1.40;0.85;;;;;;;;;;2106647;28;20039;-47
2022/05/22 05:48:17;;;;;;;2.50;0.90;;;;;;;;;;2105919;28;20196;-47
2022/05/22 05:49:18;;;;;;;1.83;0.90;;;;;;;;;;2105998;28;20096;-47
2022/05/22 05:50:21;;;;;;;2.05;1.20;;;;;;;;;;2105937;28;20127;-47
2022/05/22 05:51:22;;;;;;;3.60;1.45;;;;;;;;;;2105978;28;20119;-48
2022/05/22 05:52:24;;;;;;;1.37;0.90;;;;;;;;;;2106034;28;20129;-47
2022/05/22 05:53:34;;;;;;;1.60;0.90;;;;;;;;;;2106037;28;20044;-47
2022/05/22 05:54:36;;;;;;;1.35;0.80;;;;;;;;;;2106619;28;20207;-60
2022/05/22 05:55:37;;;;;;;1.50;1.00;;;;;;;;;;2105866;28;20510;-60
2022/05/22 05:56:59;;;;;;;1.10;0.95;;;;;;;;;;2105911;28;20063;-47
2022/05/22 05:58:00;;;;;;;1.65;0.90;;;;;;;;;;2105915;28;20592;-47
2022/05/22 05:59:01;;;;;;;1.10;1.00;;;;;;;;;;2105959;28;20138;-46
2022/05/22 06:00:04;;;;;;;1.90;1.33;;;;;;;;;;2106229;28;20104;-60
2022/05/22 06:01:06;;;;;;;1.58;0.90;;;;;;;;;;2105856;28;20047;-47
2022/05/22 06:02:10;;;;;;;2.22;1.45;;;;;;;;;;2104722;28;20197;-48
2022/05/22 06:03:12;;;;;;;1.70;1.10;;;;;;;;;;2106002;28;20174;-47
2022/05/22 06:04:18;;;;;;;1.13;0.95;;;;;;;;;;2105760;28;20048;-47
2022/05/22 06:05:21;;;;;;;1.20;0.90;;;;;;;;;;2106205;28;20088;-60
2022/05/22 06:06:22;;;;;;;2.45;1.00;;;;;;;;;;2105737;28;20139;-60
2022/05/22 06:07:23;;;;;;;1.83;1.00;;;;;;;;;;2106158;28;20043;-60
2022/05/22 06:08:24;;;;;;;3.30;1.20;;;;;;;;;;2105830;28;20071;-60
2022/05/22 06:09:26;;;;;;;1.70;1.00;;;;;;;;;;2105810;28;20131;-59
2022/05/22 06:10:26;;;;;;;1.70;0.93;;;;;;;;;;2106085;28;20127;-60
2022/05/22 06:11:28;;;;;;;1.63;1.00;;;;;;;;;;2106016;28;20442;-47
2022/05/22 06:12:29;;;;;;;2.17;0.85;;;;;;;;;;2106021;28;20048;-60
2022/05/22 06:13:30;;;;;;;1.20;0.87;;;;;;;;;;2105790;28;20120;-60
2022/05/22 06:14:31;;;;;;;1.50;1.00;;;;;;;;;;2105735;28;20478;-60
2022/05/22 06:15:32;;;;;;;4.10;1.10;;;;;;;;;;2105804;28;20062;-60
2022/05/22 06:16:34;;;;;;;1.50;1.15;;;;;;;;;;2105952;28;20509;-60